RBY22 EGBK-EGJJ
Flight info
| Callsign | RBY22 |
|---|---|
| Flight time | N/A |
| Altitude | 24000 |
| Route | DTY M605 SILVA M183 CPT/N0278F230 Y321 PEPIS/N0281F280 Q41 SAM N63 LELNA |
| Aircraft | SF50/L-SDGRWY/L |
Departure
| Time | 2026-04-24 19:15 |
|---|---|
| Airport | Sywell Aerodrome (EGBK) |
Arrival
| Time | N/A |
|---|---|
| Airport | Jersey Airport (EGJJ) |
| Time | Latitude | Longitude | Altitude | Speed | Heading |
|---|---|---|---|---|---|
| 2026-04-24 19:08 | 52.30273 | -0.78966 | 402 ft | 0 kts | 81° |
| 2026-04-24 19:13 | 52.30269 | -0.78967 | 402 ft | 3 kts | 272° |
| 2026-04-24 19:13 | 52.30278 | -0.79017 | 402 ft | 6 kts | 287° |
| 2026-04-24 19:13 | 52.30267 | -0.79106 | 401 ft | 11 kts | 235° |
| 2026-04-24 19:13 | 52.30219 | -0.79223 | 398 ft | 13 kts | 237° |
| 2026-04-24 19:14 | 52.30168 | -0.79351 | 396 ft | 14 kts | 237° |
| 2026-04-24 19:14 | 52.30114 | -0.79486 | 393 ft | 14 kts | 236° |
| 2026-04-24 19:14 | 52.30130 | -0.79593 | 391 ft | 7 kts | 12° |
| 2026-04-24 19:14 | 52.30133 | -0.79591 | 392 ft | 0 kts | 24° |
| 2026-04-24 19:15 | 52.30301 | -0.79424 | 402 ft | 64 kts | 32° |
| 2026-04-24 19:15 | 52.30868 | -0.79035 | 528 ft | 102 kts | 22° |
| 2026-04-24 19:15 | 52.31521 | -0.78634 | 951 ft | 100 kts | 19° |
| 2026-04-24 19:15 | 52.32214 | -0.78884 | 1290 ft | 111 kts | 321° |
| 2026-04-24 19:16 | 52.33009 | -0.81607 | 1929 ft | 175 kts | 309° |
| 2026-04-24 19:16 | 52.33692 | -0.83228 | 2860 ft | 175 kts | 279° |
| 2026-04-24 19:16 | 52.33307 | -0.84946 | 3902 ft | 165 kts | 213° |
| 2026-04-24 19:17 | 52.32262 | -0.85706 | 4885 ft | 167 kts | 202° |
| 2026-04-24 19:17 | 52.31328 | -0.86869 | 5880 ft | 173 kts | 224° |
| 2026-04-24 19:17 | 52.30527 | -0.88360 | 6847 ft | 176 kts | 225° |
| 2026-04-24 19:17 | 52.29708 | -0.89868 | 7789 ft | 179 kts | 225° |
| 2026-04-24 19:18 | 52.28887 | -0.91385 | 8678 ft | 182 kts | 225° |
| 2026-04-24 19:18 | 52.28040 | -0.92940 | 9552 ft | 184 kts | 225° |
| 2026-04-24 19:18 | 52.27179 | -0.94528 | 10416 ft | 187 kts | 225° |
| 2026-04-24 19:18 | 52.26310 | -0.96129 | 11259 ft | 190 kts | 225° |
| 2026-04-24 19:19 | 52.25426 | -0.97748 | 12035 ft | 193 kts | 225° |
| 2026-04-24 19:19 | 52.24531 | -0.99397 | 12782 ft | 195 kts | 225° |
| 2026-04-24 19:19 | 52.23622 | -1.01062 | 13489 ft | 197 kts | 225° |
| 2026-04-24 19:19 | 52.22714 | -1.02728 | 14144 ft | 200 kts | 225° |
| 2026-04-24 19:20 | 52.21784 | -1.04436 | 14774 ft | 202 kts | 225° |
| 2026-04-24 19:20 | 52.20839 | -1.06153 | 15378 ft | 204 kts | 226° |
| 2026-04-24 19:20 | 52.19891 | -1.07898 | 15946 ft | 207 kts | 226° |
| 2026-04-24 19:20 | 52.18852 | -1.09514 | 16480 ft | 206 kts | 211° |
| 2026-04-24 19:21 | 52.17550 | -1.10458 | 17013 ft | 205 kts | 193° |
| 2026-04-24 19:21 | 52.16137 | -1.10672 | 17532 ft | 205 kts | 174° |
| 2026-04-24 19:21 | 52.14735 | -1.10256 | 18013 ft | 206 kts | 167° |
| 2026-04-24 19:21 | 52.13322 | -1.09797 | 18499 ft | 208 kts | 168° |
| 2026-04-24 19:22 | 52.12379 | -1.09502 | 18812 ft | 209 kts | 167° |
| 2026-04-24 19:22 | 52.10461 | -1.08877 | 19425 ft | 211 kts | 167° |
| 2026-04-24 19:22 | 52.09015 | -1.08403 | 19863 ft | 213 kts | 167° |
| 2026-04-24 19:22 | 52.07557 | -1.07926 | 20287 ft | 214 kts | 167° |
| 2026-04-24 19:23 | 52.06090 | -1.07448 | 20698 ft | 216 kts | 167° |
| 2026-04-24 19:23 | 52.04609 | -1.06963 | 21094 ft | 217 kts | 167° |
| 2026-04-24 19:23 | 52.03123 | -1.06481 | 21510 ft | 217 kts | 167° |
| 2026-04-24 19:23 | 52.01642 | -1.05997 | 21941 ft | 217 kts | 167° |
| 2026-04-24 19:24 | 52.00184 | -1.05521 | 22346 ft | 216 kts | 167° |
| 2026-04-24 19:24 | 51.98705 | -1.05042 | 22751 ft | 216 kts | 167° |
| 2026-04-24 19:24 | 51.97232 | -1.04561 | 23153 ft | 216 kts | 167° |
| 2026-04-24 19:24 | 51.95759 | -1.04084 | 23558 ft | 215 kts | 167° |
| 2026-04-24 19:25 | 51.94291 | -1.03606 | 23958 ft | 215 kts | 167° |
| 2026-04-24 19:25 | 51.92820 | -1.03129 | 24260 ft | 220 kts | 167° |
| 2026-04-24 19:25 | 51.91264 | -1.02623 | 24269 ft | 235 kts | 167° |
| 2026-04-24 19:25 | 51.89624 | -1.02091 | 24275 ft | 246 kts | 167° |
| 2026-04-24 19:26 | 51.87917 | -1.01539 | 24273 ft | 255 kts | 167° |
| 2026-04-24 19:26 | 51.86148 | -1.00991 | 24275 ft | 262 kts | 171° |
| 2026-04-24 19:26 | 51.84328 | -1.01031 | 24273 ft | 270 kts | 186° |
| 2026-04-24 19:26 | 51.82492 | -1.01868 | 24275 ft | 279 kts | 199° |
| 2026-04-24 19:27 | 51.80658 | -1.03017 | 24274 ft | 286 kts | 199° |
| 2026-04-24 19:27 | 51.78774 | -1.04151 | 24275 ft | 291 kts | 199° |
| 2026-04-24 19:27 | 51.76860 | -1.05299 | 24273 ft | 295 kts | 199° |
| 2026-04-24 19:27 | 51.74928 | -1.06471 | 24273 ft | 298 kts | 199° |
| 2026-04-24 19:28 | 51.72975 | -1.07651 | 24274 ft | 301 kts | 199° |
| 2026-04-24 19:28 | 51.71003 | -1.08840 | 24274 ft | 303 kts | 199° |
| 2026-04-24 19:28 | 51.69024 | -1.10036 | 24275 ft | 305 kts | 199° |
| 2026-04-24 19:28 | 51.67030 | -1.11236 | 24273 ft | 306 kts | 199° |
| 2026-04-24 19:29 | 51.63012 | -1.13643 | 24258 ft | 309 kts | 199° |
| 2026-04-24 19:29 | 51.60998 | -1.14851 | 24260 ft | 309 kts | 199° |
| 2026-04-24 19:29 | 51.58985 | -1.16084 | 24260 ft | 310 kts | 199° |
| 2026-04-24 19:30 | 51.56970 | -1.17322 | 24261 ft | 310 kts | 199° |
| 2026-04-24 19:30 | 51.54950 | -1.18550 | 24261 ft | 311 kts | 199° |
| 2026-04-24 19:30 | 51.52925 | -1.19781 | 24261 ft | 311 kts | 199° |
| 2026-04-24 19:30 | 51.50902 | -1.21014 | 24261 ft | 311 kts | 199° |
| 2026-04-24 19:31 | 51.48902 | -1.22230 | 24261 ft | 311 kts | 199° |
| 2026-04-24 19:31 | 51.46869 | -1.23463 | 24262 ft | 312 kts | 199° |
| 2026-04-24 19:31 | 51.44842 | -1.24694 | 24262 ft | 312 kts | 199° |
| 2026-04-24 19:31 | 51.42811 | -1.25924 | 24262 ft | 312 kts | 199° |
| 2026-04-24 19:32 | 51.40777 | -1.27156 | 24262 ft | 312 kts | 199° |
| 2026-04-24 19:32 | 51.38748 | -1.28383 | 24262 ft | 312 kts | 199° |
| 2026-04-24 19:32 | 51.36716 | -1.29613 | 24262 ft | 312 kts | 199° |
| 2026-04-24 19:32 | 51.34681 | -1.30839 | 24262 ft | 312 kts | 199° |
| 2026-04-24 19:33 | 51.32648 | -1.32066 | 24262 ft | 312 kts | 199° |
| 2026-04-24 19:33 | 51.30613 | -1.33293 | 24262 ft | 312 kts | 199° |
| 2026-04-24 19:33 | 51.28575 | -1.34518 | 24262 ft | 312 kts | 199° |
| 2026-04-24 19:33 | 51.26541 | -1.35744 | 24262 ft | 312 kts | 199° |
| 2026-04-24 19:34 | 51.24534 | -1.36949 | 24262 ft | 312 kts | 199° |
| 2026-04-24 19:34 | 51.22503 | -1.38168 | 24262 ft | 312 kts | 199° |
| 2026-04-24 19:34 | 51.20468 | -1.39390 | 24262 ft | 312 kts | 199° |
| 2026-04-24 19:34 | 51.18431 | -1.40609 | 24262 ft | 312 kts | 199° |
| 2026-04-24 19:35 | 51.16395 | -1.41829 | 24262 ft | 312 kts | 199° |
| 2026-04-24 19:35 | 51.14357 | -1.43047 | 24262 ft | 312 kts | 199° |
| 2026-04-24 19:35 | 51.12320 | -1.44265 | 24262 ft | 312 kts | 199° |
| 2026-04-24 19:35 | 51.10283 | -1.45480 | 24262 ft | 312 kts | 199° |
| 2026-04-24 19:36 | 51.08245 | -1.46696 | 24262 ft | 312 kts | 199° |
| 2026-04-24 19:36 | 51.06236 | -1.47893 | 24262 ft | 312 kts | 199° |
| 2026-04-24 19:36 | 51.04196 | -1.49106 | 24262 ft | 312 kts | 199° |
| 2026-04-24 19:36 | 51.02157 | -1.50321 | 24262 ft | 312 kts | 199° |
| 2026-04-24 19:37 | 51.00124 | -1.51527 | 24262 ft | 312 kts | 199° |
| 2026-04-24 19:37 | 50.98086 | -1.52737 | 24262 ft | 312 kts | 199° |
| 2026-04-24 19:37 | 50.96048 | -1.53946 | 24262 ft | 312 kts | 199° |
| 2026-04-24 19:37 | 50.94014 | -1.55149 | 24262 ft | 312 kts | 199° |
| 2026-04-24 19:38 | 50.91975 | -1.56359 | 24262 ft | 312 kts | 199° |
| 2026-04-24 19:38 | 50.89936 | -1.57564 | 24262 ft | 312 kts | 199° |
| 2026-04-24 19:38 | 50.87901 | -1.58764 | 24262 ft | 312 kts | 199° |
| 2026-04-24 19:38 | 50.85859 | -1.59962 | 24258 ft | 312 kts | 198° |
| 2026-04-24 19:39 | 50.83848 | -1.61139 | 24262 ft | 312 kts | 199° |
| 2026-04-24 19:39 | 50.81815 | -1.62357 | 24262 ft | 312 kts | 199° |
| 2026-04-24 19:39 | 50.79780 | -1.63558 | 24262 ft | 312 kts | 199° |
| 2026-04-24 19:39 | 50.77739 | -1.64751 | 24262 ft | 312 kts | 199° |
| 2026-04-24 19:40 | 50.75702 | -1.65949 | 24262 ft | 312 kts | 199° |
| 2026-04-24 19:40 | 50.73667 | -1.67144 | 24262 ft | 312 kts | 199° |
| 2026-04-24 19:40 | 50.71632 | -1.68337 | 24262 ft | 312 kts | 199° |
| 2026-04-24 19:40 | 50.69594 | -1.69532 | 24262 ft | 312 kts | 199° |
| 2026-04-24 19:41 | 50.67553 | -1.70725 | 24262 ft | 312 kts | 199° |
| 2026-04-24 19:41 | 50.65516 | -1.71917 | 24262 ft | 312 kts | 199° |
| 2026-04-24 19:41 | 50.63505 | -1.73093 | 24262 ft | 312 kts | 199° |
| 2026-04-24 19:41 | 50.61464 | -1.74282 | 24262 ft | 312 kts | 199° |
| 2026-04-24 19:42 | 50.59427 | -1.75471 | 24262 ft | 312 kts | 199° |
| 2026-04-24 19:42 | 50.57389 | -1.76659 | 24262 ft | 312 kts | 199° |
| 2026-04-24 19:42 | 50.55351 | -1.77844 | 24262 ft | 312 kts | 199° |
| 2026-04-24 19:42 | 50.53316 | -1.79029 | 24262 ft | 312 kts | 199° |
| 2026-04-24 19:43 | 50.51273 | -1.80214 | 24262 ft | 312 kts | 199° |
| 2026-04-24 19:43 | 50.49233 | -1.81398 | 24262 ft | 312 kts | 199° |
| 2026-04-24 19:43 | 50.47194 | -1.82580 | 24265 ft | 312 kts | 199° |
| 2026-04-24 19:43 | 50.45159 | -1.83759 | 24276 ft | 312 kts | 199° |
| 2026-04-24 19:44 | 50.43123 | -1.84940 | 24275 ft | 312 kts | 199° |
| 2026-04-24 19:44 | 50.41086 | -1.86116 | 24272 ft | 312 kts | 199° |
| 2026-04-24 19:44 | 50.39049 | -1.87294 | 24266 ft | 312 kts | 199° |
| 2026-04-24 19:44 | 50.37006 | -1.88472 | 24267 ft | 312 kts | 199° |
| 2026-04-24 19:45 | 50.34971 | -1.89648 | 24268 ft | 312 kts | 199° |
| 2026-04-24 19:45 | 50.32936 | -1.90824 | 24264 ft | 312 kts | 199° |
| 2026-04-24 19:45 | 50.30917 | -1.91981 | 24265 ft | 312 kts | 199° |
| 2026-04-24 19:45 | 50.28874 | -1.93156 | 24168 ft | 315 kts | 199° |
| 2026-04-24 19:46 | 50.26811 | -1.94341 | 23888 ft | 314 kts | 199° |
| 2026-04-24 19:46 | 50.24766 | -1.95518 | 23623 ft | 313 kts | 199° |
| 2026-04-24 19:46 | 50.22725 | -1.96687 | 23359 ft | 312 kts | 198° |
| 2026-04-24 19:46 | 50.20681 | -1.97855 | 23095 ft | 312 kts | 198° |
| 2026-04-24 19:47 | 50.18639 | -1.99025 | 22827 ft | 313 kts | 199° |
| 2026-04-24 19:47 | 50.16592 | -2.00196 | 22578 ft | 313 kts | 199° |
| 2026-04-24 19:47 | 50.14544 | -2.01371 | 22317 ft | 314 kts | 199° |
| 2026-04-24 19:47 | 50.12492 | -2.02540 | 22057 ft | 314 kts | 198° |
| 2026-04-24 19:48 | 50.10439 | -2.03709 | 21748 ft | 315 kts | 199° |
| 2026-04-24 19:48 | 50.08400 | -2.04874 | 21256 ft | 304 kts | 198° |
| 2026-04-24 19:48 | 50.04518 | -2.07082 | 20296 ft | 294 kts | 198° |
| 2026-04-24 19:49 | 50.00692 | -2.09256 | 20269 ft | 297 kts | 198° |
| 2026-04-24 19:49 | 49.96855 | -2.11192 | 19163 ft | 281 kts | 190° |
| 2026-04-24 19:50 | 49.91088 | -2.13093 | 16951 ft | 288 kts | 191° |
| 2026-04-24 19:50 | 49.89136 | -2.13768 | 16231 ft | 286 kts | 191° |
| 2026-04-24 19:51 | 49.85300 | -2.15063 | 14849 ft | 276 kts | 191° |
| 2026-04-24 19:51 | 49.83426 | -2.15705 | 14221 ft | 275 kts | 191° |
| 2026-04-24 19:52 | 49.79709 | -2.16971 | 12974 ft | 272 kts | 191° |
| 2026-04-24 19:52 | 49.77868 | -2.17597 | 12351 ft | 270 kts | 191° |
| 2026-04-24 19:52 | 49.76045 | -2.18216 | 11718 ft | 267 kts | 191° |
| 2026-04-24 19:52 | 49.74238 | -2.18831 | 11101 ft | 264 kts | 191° |
| 2026-04-24 19:53 | 49.73054 | -2.19232 | 10688 ft | 262 kts | 191° |
| 2026-04-24 19:53 | 49.70707 | -2.20040 | 9860 ft | 259 kts | 192° |
| 2026-04-24 19:53 | 49.67276 | -2.21582 | 8613 ft | 255 kts | 194° |
| 2026-04-24 19:54 | 49.65578 | -2.22339 | 7989 ft | 253 kts | 194° |
| 2026-04-24 19:54 | 49.63898 | -2.23084 | 7366 ft | 250 kts | 194° |
| 2026-04-24 19:54 | 49.62771 | -2.23589 | 6945 ft | 249 kts | 194° |
| 2026-04-24 19:54 | 49.61114 | -2.24327 | 6343 ft | 246 kts | 194° |
| 2026-04-24 19:55 | 49.60042 | -2.24804 | 6268 ft | 240 kts | 194° |
| 2026-04-24 19:55 | 49.57887 | -2.25763 | 6266 ft | 244 kts | 194° |
| 2026-04-24 19:55 | 49.56247 | -2.26492 | 6268 ft | 244 kts | 194° |
| 2026-04-24 19:55 | 49.54604 | -2.27225 | 6268 ft | 246 kts | 194° |
| 2026-04-24 19:56 | 49.52958 | -2.27954 | 6268 ft | 246 kts | 194° |
| 2026-04-24 19:56 | 49.51308 | -2.28688 | 6269 ft | 247 kts | 194° |
| 2026-04-24 19:56 | 49.49658 | -2.29418 | 6269 ft | 247 kts | 194° |
| 2026-04-24 19:56 | 49.48008 | -2.30150 | 6269 ft | 247 kts | 194° |
| 2026-04-24 19:57 | 49.46353 | -2.30884 | 6194 ft | 248 kts | 194° |
| 2026-04-24 19:57 | 49.44707 | -2.31611 | 6106 ft | 245 kts | 194° |
| 2026-04-24 19:57 | 49.43071 | -2.32337 | 6106 ft | 245 kts | 194° |
| 2026-04-24 19:57 | 49.41434 | -2.33064 | 6105 ft | 245 kts | 194° |
| 2026-04-24 19:58 | 49.39804 | -2.33790 | 5884 ft | 243 kts | 194° |
| 2026-04-24 19:58 | 49.38245 | -2.34480 | 5549 ft | 227 kts | 194° |
| 2026-04-24 19:58 | 49.36773 | -2.35129 | 5049 ft | 211 kts | 194° |
| 2026-04-24 19:58 | 49.35424 | -2.35723 | 4550 ft | 194 kts | 194° |
| 2026-04-24 19:59 | 49.34155 | -2.36282 | 4040 ft | 190 kts | 193° |
| 2026-04-24 19:59 | 49.32839 | -2.36854 | 3540 ft | 205 kts | 193° |
| 2026-04-24 19:59 | 49.31415 | -2.37481 | 3048 ft | 217 kts | 194° |
| 2026-04-24 19:59 | 49.29950 | -2.38128 | 2553 ft | 220 kts | 194° |
| 2026-04-24 20:00 | 49.28476 | -2.38776 | 2125 ft | 218 kts | 194° |
| 2026-04-24 20:00 | 49.27028 | -2.39414 | 2095 ft | 218 kts | 194° |
| 2026-04-24 20:00 | 49.25594 | -2.40042 | 2100 ft | 209 kts | 194° |
| 2026-04-24 20:00 | 49.24197 | -2.40563 | 2090 ft | 207 kts | 184° |
| 2026-04-24 20:01 | 49.22783 | -2.40670 | 2094 ft | 201 kts | 180° |
| 2026-04-24 20:01 | 49.21393 | -2.40751 | 2093 ft | 199 kts | 180° |
| 2026-04-24 20:01 | 49.20035 | -2.40828 | 2094 ft | 197 kts | 180° |
| 2026-04-24 20:01 | 49.18713 | -2.40392 | 2093 ft | 196 kts | 146° |
| 2026-04-24 20:02 | 49.17983 | -2.38803 | 2091 ft | 181 kts | 111° |
| 2026-04-24 20:02 | 49.17772 | -2.36952 | 2095 ft | 180 kts | 82° |
| 2026-04-24 20:02 | 49.18302 | -2.35216 | 2084 ft | 181 kts | 56° |
| 2026-04-24 20:02 | 49.18899 | -2.33540 | 2078 ft | 178 kts | 80° |
| 2026-04-24 20:03 | 49.19354 | -2.31695 | 1756 ft | 194 kts | 73° |
| 2026-04-24 20:03 | 49.19802 | -2.29809 | 1830 ft | 185 kts | 73° |
| 2026-04-24 20:03 | 49.19907 | -2.29295 | 1871 ft | 175 kts | 78° |